EBAW/ANR METAR and TAF weather

Enter ICAO airport designator
Station Type Date Time Source
EBAW METAR 2018/04/23 11:20 UTC NOAA

EBAW 231120Z 26012KT 9999 SCT035 16/07 Q1017 NOSIG


Station Type Date Time Source
EBAW Decoded METAR 2018/04/23 11:20 UTC NOAA

Antwerpen / Deurne, Belgium (EBAW) 51-12N 004-28E 14M
Apr 23, 2018 - 07:20 AM EDT / 2018.04.23 1120 UTC
Wind: from the W (260 degrees) at 14 MPH (12 KT):0
Visibility: greater than 7 mile(s):0
Sky conditions: partly cloudy
Temperature: 60 F (16 C)
Dew Point: 44 F (7 C)
Relative Humidity: 55%
Pressure (altimeter): 30.03 in. Hg (1017 hPa)
ob: EBAW 231120Z 26012KT 9999 SCT035 16/07 Q1017 NOSIG
cycle: 11

Station Type Date Time Source
EBAW TAF 2017/09/10 00:27 UTC NOAA

TAF TAF EBAW 102310Z 1100/1112 22015G25KT 9999 SCT015 BKN020 PROB30
TEMPO 1100/1101 4000 RA BKN012 PROB40
TEMPO 1111/1112 21020G35KT 1500 +SHRA TSRA SCT008 BKN012CB


Example: see airport list